createdAt,value
2018-01-22T00:00:54.785Z,14.20
2018-01-22T00:01:57.328Z,12.68
2018-01-22T00:03:00.600Z,16.27
2018-01-22T00:04:03.928Z,12.85
2018-01-22T00:05:06.479Z,21.20
2018-01-22T00:06:08.993Z,13.93
2018-01-22T00:07:11.514Z,15.13
2018-01-22T00:08:14.032Z,14.18
2018-01-22T00:09:16.604Z,13.70
2018-01-22T00:10:19.121Z,15.48
2018-01-22T00:11:21.638Z,13.45
2018-01-22T00:12:24.151Z,13.82
2018-01-22T00:13:26.693Z,13.88
2018-01-22T00:14:29.245Z,14.98
2018-01-22T00:15:32.528Z,15.90
2018-01-22T00:16:35.817Z,13.80
2018-01-22T00:17:39.422Z,15.25
2018-01-22T00:18:41.977Z,19.02
2018-01-22T00:19:45.257Z,14.70
2018-01-22T00:20:48.540Z,13.77
2018-01-22T00:21:51.876Z,18.37
2018-01-22T00:22:54.444Z,13.73
2018-01-22T00:23:56.937Z,15.35
2018-01-22T00:24:59.460Z,13.57
2018-01-22T00:26:01.988Z,13.30
2018-01-22T00:27:05.295Z,17.85
2018-01-22T00:28:07.820Z,17.15
2018-01-22T00:29:10.372Z,17.62
2018-01-22T00:30:12.884Z,18.35
2018-01-22T00:31:15.408Z,11.93
2018-01-22T00:32:17.924Z,11.73
2018-01-22T00:33:20.438Z,16.55
2018-01-22T00:34:22.984Z,11.38
2018-01-22T00:35:25.497Z,14.38
2018-01-22T00:36:28.794Z,14.85
2018-01-22T00:37:31.371Z,12.27
2018-01-22T00:38:33.899Z,13.75
2018-01-22T00:39:36.416Z,12.82
2018-01-22T00:40:38.930Z,10.82
2018-01-22T00:41:41.446Z,14.27
2018-01-22T00:42:43.997Z,13.77
2018-01-22T00:43:46.560Z,11.63
2018-01-22T00:44:49.826Z,12.23
2018-01-22T00:45:53.105Z,13.25
2018-01-22T00:46:56.424Z,12.60
2018-01-22T00:47:58.937Z,11.93
2018-01-22T00:49:01.472Z,12.75
2018-01-22T00:50:03.982Z,13.73
2018-01-22T00:51:06.492Z,12.32
2018-01-22T00:52:09.040Z,11.68
2018-01-22T00:53:11.617Z,13.90
2018-01-22T00:54:14.170Z,18.05
2018-01-22T00:55:16.693Z,17.87
2018-01-22T00:56:19.221Z,17.17
2018-01-22T00:57:21.746Z,15.77
2018-01-22T00:58:24.263Z,11.82
2018-01-22T00:59:26.824Z,12.80
2018-01-22T01:00:29.345Z,14.32
2018-01-22T01:01:31.849Z,14.07
2018-01-22T01:02:34.371Z,12.00
2018-01-22T01:03:36.885Z,16.00
2018-01-22T01:04:39.432Z,12.82
2018-01-22T01:05:41.958Z,12.60
2018-01-22T01:06:44.481Z,14.23
2018-01-22T01:07:46.992Z,19.48
2018-01-22T01:08:49.509Z,14.52
2018-01-22T01:09:52.078Z,14.32
2018-01-22T01:10:54.594Z,11.70
2018-01-22T01:11:57.108Z,13.02
2018-01-22T01:12:59.626Z,13.75
2018-01-22T01:14:02.151Z,12.25
2018-01-22T01:15:04.713Z,16.92
2018-01-22T01:16:07.245Z,16.05
2018-01-22T01:17:09.781Z,21.27
2018-01-22T01:18:12.297Z,15.00
2018-01-22T01:19:14.876Z,18.35
2018-01-22T01:20:17.431Z,15.40
2018-01-22T01:21:20.056Z,16.45
2018-01-22T01:22:22.679Z,15.95
2018-01-22T01:23:25.934Z,16.02
2018-01-22T01:24:29.892Z,15.15
2018-01-22T01:25:32.399Z,16.65
2018-01-22T01:26:35.680Z,18.75
2018-01-22T01:27:38.997Z,17.08
2018-01-22T01:28:41.522Z,20.08
2018-01-22T01:29:44.803Z,17.33
2018-01-22T01:30:48.123Z,15.60
2018-01-22T01:31:50.644Z,12.50
2018-01-22T01:32:53.173Z,12.40
2018-01-22T01:33:55.697Z,11.55
2018-01-22T01:34:58.992Z,11.38
2018-01-22T01:36:01.543Z,12.63
2018-01-22T01:37:04.825Z,12.18
2018-01-22T01:38:08.108Z,12.88
2018-01-22T01:39:11.389Z,11.18
2018-01-22T01:40:14.673Z,12.45
2018-01-22T01:41:17.994Z,14.98
2018-01-22T01:42:20.510Z,12.32
2018-01-22T01:43:23.022Z,15.63
2018-01-22T01:44:25.573Z,10.77
2018-01-22T01:45:28.089Z,14.90
2018-01-22T01:46:30.600Z,16.40
2018-01-22T01:47:33.117Z,14.90
2018-01-22T01:48:35.636Z,12.93
2018-01-22T01:49:38.180Z,15.43
2018-01-22T01:50:41.469Z,14.85
2018-01-22T01:51:44.788Z,15.27
2018-01-22T01:52:47.321Z,18.15
2018-01-22T01:53:50.619Z,13.52
2018-01-22T01:54:53.165Z,17.92
2018-01-22T01:55:56.485Z,15.27
2018-01-22T01:56:59.038Z,17.00
2018-01-22T01:58:01.566Z,17.92
2018-01-22T01:59:04.080Z,15.85
2018-01-22T02:00:06.638Z,25.10
2018-01-22T02:01:09.155Z,15.30
2018-01-22T02:02:11.706Z,14.25
2018-01-22T02:03:14.269Z,14.35
2018-01-22T02:04:16.776Z,13.73
2018-01-22T02:05:19.283Z,17.42
2018-01-22T02:06:21.796Z,13.85
2018-01-22T02:07:24.368Z,13.93
2018-01-22T02:08:26.921Z,13.50
2018-01-22T02:09:29.449Z,13.45
2018-01-22T02:10:31.960Z,13.52
2018-01-22T02:11:34.481Z,12.40
2018-01-22T02:12:37.028Z,13.68
2018-01-22T02:13:39.544Z,12.02
2018-01-22T02:14:42.065Z,12.73
2018-01-22T02:15:44.626Z,15.48
2018-01-22T02:16:47.187Z,14.77
2018-01-22T02:17:49.696Z,10.70
2018-01-22T02:18:52.232Z,14.07
2018-01-22T02:19:54.741Z,11.35
2018-01-22T02:20:58.082Z,14.55
2018-01-22T02:22:00.637Z,12.68
2018-01-22T02:23:03.162Z,13.15
2018-01-22T02:24:05.673Z,16.00
2018-01-22T02:25:08.194Z,12.13
2018-01-22T02:26:10.713Z,11.40
2018-01-22T02:27:13.262Z,13.07
2018-01-22T02:28:15.784Z,12.00
2018-01-22T02:29:18.302Z,11.80
2018-01-22T02:30:20.828Z,14.90
2018-01-22T02:31:23.349Z,13.88
2018-01-22T02:32:25.901Z,15.85
2018-01-22T02:33:28.418Z,14.98
2018-01-22T02:34:30.944Z,16.40
2018-01-22T02:35:33.504Z,13.77
2018-01-22T02:36:36.034Z,16.40
2018-01-22T02:37:38.555Z,14.00
2018-01-22T02:38:41.110Z,11.95
2018-01-22T02:39:43.677Z,13.52
2018-01-22T02:40:46.211Z,16.25
2018-01-22T02:41:49.505Z,12.35
2018-01-22T02:42:52.785Z,15.93
2018-01-22T02:43:56.102Z,12.95
2018-01-22T02:44:58.612Z,14.75
2018-01-22T02:46:01.128Z,12.02
2018-01-22T02:47:03.638Z,13.55
2018-01-22T02:48:06.151Z,11.75
2018-01-22T02:49:08.696Z,13.07
2018-01-22T02:50:11.977Z,11.63
2018-01-22T02:51:15.293Z,16.15
2018-01-22T02:52:17.817Z,12.65
2018-01-22T02:53:21.106Z,11.48
2018-01-22T02:54:24.389Z,10.82
2018-01-22T02:55:27.664Z,12.85
2018-01-22T02:56:30.353Z,10.88
2018-01-22T02:57:33.636Z,12.55
2018-01-22T02:58:36.914Z,15.18
2018-01-22T02:59:40.196Z,12.18
2018-01-22T03:00:43.481Z,12.25
2018-01-22T03:01:46.788Z,11.75
2018-01-22T03:02:49.312Z,8.95
2018-01-22T03:03:51.820Z,12.70
2018-01-22T03:04:54.335Z,10.05
2018-01-22T03:05:56.877Z,12.48
2018-01-22T03:06:59.417Z,10.20
2018-01-22T03:08:01.933Z,11.80
2018-01-22T03:09:04.489Z,13.32
2018-01-22T03:10:07.014Z,12.07
2018-01-22T03:11:09.581Z,12.25
2018-01-22T03:12:12.102Z,10.35
2018-01-22T03:13:14.624Z,11.95
2018-01-22T03:14:17.172Z,9.82
2018-01-22T03:15:19.708Z,10.93
2018-01-22T03:16:22.214Z,10.15
2018-01-22T03:17:24.733Z,9.88
2018-01-22T03:18:28.032Z,13.40
2018-01-22T03:19:31.344Z,8.85
2018-01-22T03:20:33.858Z,10.32
2018-01-22T03:21:36.369Z,9.10
2018-01-22T03:22:38.889Z,8.00
2018-01-22T03:23:41.402Z,8.30
2018-01-22T03:24:43.949Z,8.63
2018-01-22T03:25:47.238Z,10.52
2018-01-22T03:26:50.519Z,8.32
2018-01-22T03:27:53.812Z,8.32
2018-01-22T03:28:56.353Z,10.50
2018-01-22T03:29:58.868Z,8.90
2018-01-22T03:31:01.381Z,12.68
2018-01-22T03:32:03.893Z,8.95
2018-01-22T03:33:06.405Z,14.20
2018-01-22T03:34:08.978Z,11.25
2018-01-22T03:35:11.488Z,7.75
2018-01-22T03:36:14.004Z,8.82
2018-01-22T03:37:16.525Z,11.75
2018-01-22T03:38:19.041Z,7.62
2018-01-22T03:39:21.599Z,9.25
2018-01-22T03:40:24.119Z,10.25
2018-01-22T03:41:26.656Z,9.38
2018-01-22T03:42:29.970Z,10.32
2018-01-22T03:43:32.485Z,8.07
2018-01-22T03:44:34.995Z,7.85
2018-01-22T03:45:37.510Z,9.02
2018-01-22T03:46:40.033Z,7.22
2018-01-22T03:47:42.586Z,10.68
2018-01-22T03:48:45.092Z,9.02
2018-01-22T03:49:47.604Z,7.43
2018-01-22T03:50:50.889Z,7.82
2018-01-22T03:51:54.208Z,9.65
2018-01-22T03:52:56.714Z,8.65
2018-01-22T03:53:59.255Z,6.72
2018-01-22T03:55:01.785Z,7.90
2018-01-22T03:56:04.336Z,6.70
2018-01-22T03:57:07.615Z,7.18
2018-01-22T03:58:10.924Z,6.07
2018-01-22T03:59:13.436Z,7.20
2018-01-22T04:00:15.944Z,8.80
2018-01-22T04:01:18.465Z,6.85
2018-01-22T04:02:20.964Z,7.50
2018-01-22T04:03:24.274Z,7.18
2018-01-22T04:04:26.788Z,6.80
2018-01-22T04:05:29.298Z,8.23
2018-01-22T04:06:31.807Z,7.90
2018-01-22T04:07:34.369Z,12.65
2018-01-22T04:08:36.890Z,9.77
2018-01-22T04:09:39.408Z,7.57
2018-01-22T04:10:41.948Z,7.78
2018-01-22T04:11:44.461Z,7.75
2018-01-22T04:12:47.782Z,8.25
2018-01-22T04:13:50.321Z,7.35
2018-01-22T04:14:53.600Z,7.60
2018-01-22T04:15:56.882Z,9.43
2018-01-22T04:17:00.168Z,7.22
2018-01-22T04:18:03.479Z,8.32
2018-01-22T04:20:14.835Z,8.85
2018-01-22T04:21:18.144Z,7.72
2018-01-22T04:22:20.662Z,10.05
2018-01-22T04:23:23.180Z,11.05
2018-01-22T04:24:25.728Z,9.80
2018-01-22T04:25:29.008Z,9.45
2018-01-22T04:26:32.297Z,10.90
2018-01-22T04:27:34.809Z,6.78
2018-01-22T04:28:37.317Z,7.07
2018-01-22T04:29:40.633Z,7.30
2018-01-22T04:30:43.144Z,7.60
2018-01-22T04:31:45.646Z,8.60
2018-01-22T04:32:48.169Z,13.75
2018-01-22T04:33:50.790Z,7.68
2018-01-22T04:34:53.300Z,8.35
2018-01-22T04:35:55.812Z,9.93
2018-01-22T04:36:58.373Z,9.80
2018-01-22T04:38:00.885Z,8.43
2018-01-22T04:39:03.392Z,10.65
2018-01-22T04:40:06.705Z,12.95
2018-01-22T04:41:09.266Z,8.88
2018-01-22T04:42:11.775Z,8.57
2018-01-22T04:43:14.284Z,8.98
2018-01-22T04:44:16.806Z,9.98
2018-01-22T04:45:19.320Z,18.40
2018-01-22T04:46:21.860Z,8.13
2018-01-22T04:47:24.519Z,6.35
2018-01-22T04:48:27.049Z,8.82
2018-01-22T04:49:29.582Z,9.50
2018-01-22T04:50:32.101Z,9.50
2018-01-22T04:51:34.657Z,9.75
2018-01-22T04:52:37.176Z,9.00
2018-01-22T04:53:40.496Z,9.82
2018-01-22T04:54:43.001Z,8.10
2018-01-22T04:55:45.614Z,8.43
2018-01-22T04:56:48.168Z,9.50
2018-01-22T04:57:51.444Z,11.93
2018-01-22T04:58:54.731Z,7.70
2018-01-22T04:59:58.030Z,11.85
2018-01-22T05:01:00.636Z,6.65
2018-01-22T05:02:03.260Z,11.15
2018-01-22T05:03:05.781Z,6.97
2018-01-22T05:04:08.402Z,11.55
2018-01-22T05:05:10.926Z,9.05
2018-01-22T05:06:13.432Z,7.75
2018-01-22T05:07:15.993Z,6.95
2018-01-22T05:08:18.509Z,9.27
2018-01-22T05:09:21.025Z,7.95
2018-01-22T05:10:23.543Z,8.95
2018-01-22T05:11:26.157Z,7.80
2018-01-22T05:12:28.721Z,9.13
2018-01-22T05:13:31.272Z,10.10
2018-01-22T05:14:34.551Z,11.18
2018-01-22T05:15:37.833Z,8.50
2018-01-22T05:16:41.117Z,6.90
2018-01-22T05:17:44.420Z,9.57
2018-01-22T05:18:46.936Z,9.70
2018-01-22T05:19:49.461Z,12.18
2018-01-22T05:20:51.985Z,7.70
2018-01-22T05:21:54.505Z,8.13
2018-01-22T05:22:57.067Z,10.48
2018-01-22T05:23:59.582Z,10.75
2018-01-22T05:25:02.122Z,10.30
2018-01-22T05:26:04.638Z,6.62
2018-01-22T05:27:07.909Z,8.13
2018-01-22T05:28:11.329Z,8.93
2018-01-22T05:29:13.849Z,8.00
2018-01-22T05:30:16.361Z,7.12
2018-01-22T05:31:18.877Z,6.95
2018-01-22T05:32:21.437Z,9.00
2018-01-22T05:33:23.956Z,7.18
2018-01-22T05:34:26.466Z,8.02
2018-01-22T05:35:28.995Z,7.70
2018-01-22T05:36:31.508Z,6.05
2018-01-22T05:37:34.068Z,7.05
2018-01-22T05:38:36.579Z,7.03
2018-01-22T05:39:39.100Z,6.80
2018-01-22T05:40:41.610Z,7.65
2018-01-22T05:41:44.134Z,7.07
2018-01-22T05:42:46.678Z,7.60
2018-01-22T05:43:49.200Z,8.15
2018-01-22T05:44:52.478Z,7.47
2018-01-22T05:45:55.757Z,9.23
2018-01-22T05:46:59.061Z,6.72
2018-01-22T05:48:01.605Z,6.30
2018-01-22T05:49:04.922Z,7.60
2018-01-22T05:50:07.425Z,8.60
2018-01-22T05:51:09.927Z,8.40
2018-01-22T05:52:13.204Z,8.70
2018-01-22T05:53:16.538Z,6.78
2018-01-22T05:54:19.080Z,8.30
2018-01-22T05:55:21.610Z,8.10
2018-01-22T05:56:24.133Z,5.60
2018-01-22T05:57:26.645Z,5.85
2018-01-22T05:58:29.200Z,5.90
2018-01-22T05:59:31.709Z,7.30
2018-01-22T06:00:34.213Z,5.43
2018-01-22T06:01:36.728Z,5.50
2018-01-22T06:02:40.010Z,7.25
2018-01-22T06:03:42.574Z,6.82
2018-01-22T06:04:45.978Z,6.55
2018-01-22T06:05:48.508Z,7.40
2018-01-22T06:06:51.033Z,7.70
2018-01-22T06:07:53.553Z,7.05
2018-01-22T06:08:56.835Z,7.47
2018-01-22T06:10:00.158Z,10.07
2018-01-22T06:11:02.669Z,5.65
2018-01-22T06:12:05.184Z,6.57
2018-01-22T06:13:07.696Z,5.75
2018-01-22T06:14:10.213Z,6.50
2018-01-22T06:15:12.754Z,6.82
2018-01-22T06:16:16.025Z,7.68
2018-01-22T06:17:19.308Z,9.82
2018-01-22T06:18:22.593Z,11.07
2018-01-22T06:19:25.879Z,8.82
2018-01-22T06:20:29.196Z,6.15
2018-01-22T06:21:31.730Z,9.25
2018-01-22T06:22:35.012Z,7.57
2018-01-22T06:23:38.289Z,6.10
2018-01-22T06:24:41.576Z,6.32
2018-01-22T06:25:44.975Z,7.20
2018-01-22T06:26:48.245Z,6.60
2018-01-22T06:27:51.525Z,6.10
2018-01-22T06:28:54.037Z,7.65
2018-01-22T06:29:56.540Z,7.57
2018-01-22T06:30:59.251Z,6.57
2018-01-22T06:32:01.766Z,6.90
2018-01-22T06:33:04.277Z,7.78
2018-01-22T06:34:07.554Z,6.32
2018-01-22T06:35:10.962Z,8.20
2018-01-22T06:36:13.569Z,6.57
2018-01-22T06:37:16.857Z,7.62
2018-01-22T06:38:19.372Z,5.30
2018-01-22T06:39:21.886Z,8.27
2018-01-22T06:40:24.513Z,14.87
2018-01-22T06:41:27.069Z,10.48
2018-01-22T06:42:29.647Z,7.07
2018-01-22T06:43:32.157Z,9.65
2018-01-22T06:44:34.674Z,8.32
2018-01-22T06:45:37.956Z,7.95
2018-01-22T06:46:40.516Z,6.60
2018-01-22T06:47:43.055Z,8.18
2018-01-22T06:48:45.573Z,11.02
2018-01-22T06:49:48.084Z,7.15
2018-01-22T06:50:50.600Z,5.82
2018-01-22T06:51:53.152Z,6.15
2018-01-22T06:52:55.675Z,8.32
2018-01-22T06:53:58.264Z,9.00
2018-01-22T06:55:01.538Z,8.68
2018-01-22T06:56:04.053Z,9.10
2018-01-22T06:57:06.609Z,6.12
2018-01-22T06:58:09.174Z,6.65
2018-01-22T06:59:11.691Z,9.40
2018-01-22T07:00:14.230Z,9.48
2018-01-22T07:01:16.741Z,8.65
2018-01-22T07:02:20.021Z,10.57
2018-01-22T07:03:23.349Z,12.43
2018-01-22T07:04:25.862Z,12.50
2018-01-22T07:05:28.379Z,7.78
2018-01-22T07:06:30.893Z,9.73
2018-01-22T07:07:33.414Z,9.60
2018-01-22T07:08:35.962Z,8.18
2018-01-22T07:09:38.468Z,9.40
2018-01-22T07:10:40.981Z,9.45
2018-01-22T07:11:44.266Z,10.35
2018-01-22T07:12:47.541Z,7.28
2018-01-22T07:13:50.916Z,9.52
2018-01-22T07:14:53.421Z,6.97
2018-01-22T07:15:55.930Z,9.65
2018-01-22T07:16:58.446Z,8.52
2018-01-22T07:18:00.957Z,8.85
2018-01-22T07:19:03.526Z,10.20
2018-01-22T07:20:06.045Z,9.68
2018-01-22T07:21:08.613Z,9.55
2018-01-22T07:22:11.146Z,11.45
2018-01-22T07:23:14.434Z,7.85
2018-01-22T07:24:17.761Z,9.82
2018-01-22T07:25:20.273Z,9.63
2018-01-22T07:26:22.784Z,16.15
2018-01-22T07:27:25.299Z,9.18
2018-01-22T07:28:27.821Z,8.00
2018-01-22T07:29:30.374Z,8.68
2018-01-22T07:30:32.885Z,11.18
2018-01-22T07:31:35.397Z,8.10
2018-01-22T07:32:37.918Z,8.00
2018-01-22T07:33:40.431Z,7.87
2018-01-22T07:34:42.991Z,8.55
2018-01-22T07:35:45.504Z,8.98
2018-01-22T07:36:48.042Z,6.28
2018-01-22T07:37:50.843Z,8.75
2018-01-22T07:38:53.352Z,8.13
2018-01-22T07:39:55.985Z,7.35
2018-01-22T07:40:58.511Z,7.25
2018-01-22T07:42:01.022Z,11.18
2018-01-22T07:43:03.550Z,7.50
2018-01-22T07:44:06.067Z,7.75
2018-01-22T07:45:08.625Z,8.35
2018-01-22T07:46:11.135Z,7.93
2018-01-22T07:47:13.649Z,8.60
2018-01-22T07:48:16.168Z,6.18
2018-01-22T07:49:18.680Z,9.00
2018-01-22T07:50:21.248Z,6.68
2018-01-22T07:51:23.770Z,6.75
2018-01-22T07:52:26.290Z,6.40
2018-01-22T07:53:28.801Z,9.00
2018-01-22T07:54:31.318Z,7.82
2018-01-22T07:55:33.867Z,6.75
2018-01-22T07:56:36.380Z,6.85
2018-01-22T07:57:39.660Z,8.35
2018-01-22T07:58:42.935Z,7.35
2018-01-22T07:59:46.218Z,9.25
2018-01-22T08:00:49.544Z,5.82
2018-01-22T08:01:52.068Z,8.45
2018-01-22T08:02:55.348Z,6.15
2018-01-22T08:03:58.624Z,8.50
2018-01-22T08:05:01.139Z,7.82
2018-01-22T08:06:03.706Z,8.70
2018-01-22T08:07:06.213Z,8.65
2018-01-22T08:08:08.723Z,6.97
2018-01-22T08:09:11.254Z,6.35
2018-01-22T08:10:13.777Z,12.05
2018-01-22T08:11:16.338Z,10.57
2018-01-22T08:12:18.848Z,8.80
2018-01-22T08:13:21.366Z,9.40
2018-01-22T08:14:23.891Z,10.20
2018-01-22T08:15:27.174Z,9.15
2018-01-22T08:16:30.492Z,6.82
2018-01-22T08:17:33.006Z,7.18
2018-01-22T08:18:36.308Z,7.90
2018-01-22T08:19:39.732Z,7.75
2018-01-22T08:20:42.260Z,7.97
2018-01-22T08:21:45.572Z,8.95
2018-01-22T08:22:48.084Z,7.25
2018-01-22T08:23:50.600Z,6.72
2018-01-22T08:24:53.108Z,11.10
2018-01-22T08:25:55.617Z,8.80
2018-01-22T08:26:58.922Z,6.70
2018-01-22T08:28:01.458Z,7.93
2018-01-22T08:29:04.975Z,8.77
2018-01-22T08:30:07.485Z,7.75
2018-01-22T08:31:10.011Z,5.93
2018-01-22T08:32:12.526Z,6.62
2018-01-22T08:33:15.044Z,8.55
2018-01-22T08:34:17.599Z,6.75
2018-01-22T08:35:20.109Z,7.15
2018-01-22T08:36:22.630Z,7.72
2018-01-22T08:37:25.145Z,7.80
2018-01-22T08:38:27.672Z,6.22
2018-01-22T08:39:30.241Z,6.20
2018-01-22T08:40:32.745Z,5.47
2018-01-22T08:41:35.252Z,5.97
2018-01-22T08:42:37.777Z,6.22
2018-01-22T08:43:40.289Z,7.32
2018-01-22T08:44:42.850Z,6.10
2018-01-22T08:45:45.364Z,6.65
2018-01-22T08:46:47.873Z,6.65
2018-01-22T08:47:51.151Z,7.78
2018-01-22T08:48:54.436Z,5.95
2018-01-22T08:49:57.756Z,6.90
2018-01-22T08:51:00.276Z,7.32
2018-01-22T08:52:02.789Z,7.37
2018-01-22T08:53:05.306Z,10.98
2018-01-22T08:54:07.825Z,5.80
2018-01-22T08:55:10.389Z,6.35
2018-01-22T08:56:12.906Z,4.97
2018-01-22T08:57:15.421Z,5.93
2018-01-22T08:58:17.928Z,5.50
2018-01-22T08:59:20.446Z,5.57
2018-01-22T09:00:23.017Z,6.10
2018-01-22T09:01:25.528Z,5.50
2018-01-22T09:02:28.037Z,5.90
2018-01-22T09:03:30.552Z,6.10
2018-01-22T09:04:33.068Z,8.55
2018-01-22T09:05:35.638Z,6.35
2018-01-22T09:06:38.161Z,7.07
2018-01-22T09:07:40.680Z,7.10
2018-01-22T09:08:43.190Z,8.10
2018-01-22T09:09:45.709Z,8.00
2018-01-22T09:10:48.268Z,6.18
2018-01-22T09:11:50.792Z,7.32
2018-01-22T09:12:54.073Z,6.47
2018-01-22T09:13:56.582Z,6.87
2018-01-22T09:14:59.109Z,5.90
2018-01-22T09:16:01.652Z,6.05
2018-01-22T09:17:04.169Z,5.55
2018-01-22T09:18:06.689Z,6.87
2018-01-22T09:19:09.205Z,6.40
2018-01-22T09:20:11.766Z,6.90
2018-01-22T09:21:14.285Z,6.50
2018-01-22T09:22:16.802Z,5.97
2018-01-22T09:23:19.313Z,6.15
2018-01-22T09:24:21.824Z,9.40
2018-01-22T09:25:24.380Z,11.57
2018-01-22T09:26:27.670Z,11.27
2018-01-22T09:27:30.945Z,8.63
2018-01-22T09:28:34.253Z,14.73
2018-01-22T09:29:36.765Z,7.12
2018-01-22T09:30:39.314Z,6.35
2018-01-22T09:31:41.835Z,8.00
2018-01-22T09:32:44.363Z,7.20
2018-01-22T09:33:46.873Z,6.57
2018-01-22T09:34:49.382Z,6.78
2018-01-22T09:35:51.944Z,8.60
2018-01-22T09:36:54.460Z,8.82
2018-01-22T09:37:57.736Z,10.38
2018-01-22T09:39:00.252Z,15.73
2018-01-22T09:40:02.757Z,7.15
2018-01-22T09:41:05.314Z,8.30
2018-01-22T09:42:07.824Z,9.80
2018-01-22T09:43:10.332Z,9.02
2018-01-22T09:44:12.856Z,14.07
2018-01-22T09:45:15.365Z,12.48
2018-01-22T09:46:17.931Z,7.57
2018-01-22T09:47:20.481Z,7.62
2018-01-22T09:48:22.994Z,6.20
2018-01-22T09:49:26.273Z,7.25
2018-01-22T09:50:29.555Z,9.50
2018-01-22T09:51:32.901Z,7.00
2018-01-22T09:52:35.415Z,6.30
2018-01-22T09:53:38.701Z,8.35
2018-01-22T09:54:41.985Z,5.37
2018-01-22T09:55:45.357Z,6.68
2018-01-22T09:56:48.667Z,8.25
2018-01-22T09:57:51.184Z,6.12
2018-01-22T09:58:53.737Z,7.35
2018-01-22T09:59:56.247Z,5.87
2018-01-22T10:00:59.599Z,6.68
2018-01-22T10:02:02.108Z,6.12
2018-01-22T10:03:04.629Z,6.75
2018-01-22T10:04:07.185Z,8.55
2018-01-22T10:05:09.697Z,7.55
2018-01-22T10:06:12.968Z,6.75
2018-01-22T10:07:15.487Z,6.37
2018-01-22T10:08:17.993Z,6.70
2018-01-22T10:09:20.540Z,5.55
2018-01-22T10:10:23.053Z,6.82
2018-01-22T10:11:26.370Z,6.30
2018-01-22T10:12:28.884Z,5.40
2018-01-22T10:13:32.169Z,5.40
2018-01-22T10:14:35.444Z,5.93
2018-01-22T10:15:37.957Z,7.18
2018-01-22T10:16:40.501Z,5.30
2018-01-22T10:17:43.777Z,5.85
2018-01-22T10:18:47.057Z,5.00
2018-01-22T10:19:50.338Z,4.53
2018-01-22T10:20:53.612Z,5.22
2018-01-22T10:21:56.164Z,4.70
2018-01-22T10:22:58.687Z,5.07
2018-01-22T10:24:01.221Z,5.40
2018-01-22T10:25:04.509Z,5.60
2018-01-22T10:26:07.790Z,6.55
2018-01-22T10:27:11.100Z,7.00
2018-01-22T10:28:13.612Z,5.22
2018-01-22T10:29:16.128Z,4.82
2018-01-22T10:31:27.675Z,8.38
2018-01-22T10:32:30.241Z,10.50
2018-01-22T10:33:32.758Z,8.02
2018-01-22T10:34:35.274Z,10.75
2018-01-22T10:35:37.789Z,14.05
2018-01-22T10:36:40.344Z,9.60
2018-01-22T10:37:42.924Z,7.62
2018-01-22T10:38:45.440Z,7.90
2018-01-22T10:39:47.953Z,17.75
2018-01-22T10:40:50.474Z,6.62
2018-01-22T10:41:53.748Z,6.90
2018-01-22T10:42:56.408Z,10.55
2018-01-22T10:43:58.925Z,8.07
2018-01-22T10:45:01.436Z,12.60
2018-01-22T10:46:03.948Z,5.68
2018-01-22T10:47:06.468Z,10.10
2018-01-22T10:48:09.010Z,7.47
2018-01-22T10:49:11.517Z,7.45
2018-01-22T10:50:14.803Z,12.88
2018-01-22T10:51:17.355Z,8.25
2018-01-22T10:52:19.866Z,7.87
2018-01-22T10:53:22.373Z,7.97
2018-01-22T10:54:24.900Z,9.82
2018-01-22T10:55:27.420Z,5.97
2018-01-22T10:56:29.963Z,7.07
2018-01-22T10:57:32.474Z,8.93
2018-01-22T10:58:35.756Z,4.57
2018-01-22T10:59:39.370Z,5.20
2018-01-22T11:00:41.922Z,5.40
2018-01-22T11:01:45.201Z,5.20
2018-01-22T11:02:48.482Z,6.55
2018-01-22T11:03:51.763Z,7.05
2018-01-22T11:04:55.077Z,8.75
2018-01-22T11:05:57.588Z,6.40
2018-01-22T11:07:00.102Z,5.90
2018-01-22T11:08:02.614Z,5.93
2018-01-22T11:09:05.136Z,7.93
2018-01-22T11:10:07.688Z,8.77
2018-01-22T11:11:10.969Z,6.07
2018-01-22T11:12:14.253Z,6.22
2018-01-22T11:13:17.572Z,6.50
2018-01-22T11:14:20.109Z,7.72
2018-01-22T11:15:28.448Z,6.40
2018-01-22T11:16:30.961Z,5.55
2018-01-22T11:17:34.247Z,6.20
2018-01-22T11:18:37.574Z,7.40
2018-01-22T11:19:40.087Z,7.70
2018-01-22T11:20:43.393Z,6.25
2018-01-22T11:21:46.076Z,6.15
2018-01-22T11:22:48.600Z,5.00
2018-01-22T11:23:51.152Z,6.20
2018-01-22T11:24:53.791Z,6.18
2018-01-22T11:25:56.299Z,6.72
2018-01-22T11:26:58.808Z,7.00
2018-01-22T11:28:01.326Z,7.28
2018-01-22T11:29:03.852Z,7.60
2018-01-22T11:30:06.412Z,7.75
2018-01-22T11:31:08.921Z,5.32
2018-01-22T11:32:11.425Z,4.97
2018-01-22T11:33:13.937Z,4.28
2018-01-22T11:34:16.458Z,4.72
2018-01-22T11:35:19.000Z,5.62
2018-01-22T11:36:22.277Z,4.60
2018-01-22T11:37:24.829Z,4.28
2018-01-22T11:38:27.341Z,4.80
2018-01-22T11:39:29.857Z,7.60
2018-01-22T11:40:32.403Z,5.20
2018-01-22T11:41:34.912Z,8.43
2018-01-22T11:42:38.226Z,6.05
2018-01-22T11:43:40.738Z,6.45
2018-01-22T11:44:43.254Z,6.15
2018-01-22T11:45:45.945Z,6.70
2018-01-22T11:46:48.449Z,5.05
2018-01-22T11:47:50.960Z,6.37
2018-01-22T11:48:53.557Z,14.13
2018-01-22T11:49:56.042Z,6.28
2018-01-22T11:50:58.548Z,6.03
2018-01-22T11:52:01.058Z,5.72
2018-01-22T11:53:03.579Z,6.25
2018-01-22T11:54:06.123Z,6.60
2018-01-22T11:55:09.413Z,8.85
2018-01-22T11:56:12.688Z,5.65
2018-01-22T11:57:16.021Z,3.40
2018-01-22T11:58:18.534Z,5.65
2018-01-22T11:59:21.049Z,6.20
2018-01-22T12:00:23.576Z,6.07
2018-01-22T12:01:26.857Z,5.22
2018-01-22T12:02:30.163Z,5.05
2018-01-22T12:03:32.680Z,5.87
2018-01-22T12:04:35.184Z,4.93
2018-01-22T12:05:38.457Z,5.25
2018-01-22T12:06:41.737Z,8.95
2018-01-22T12:07:45.052Z,4.75
2018-01-22T12:08:47.560Z,7.68
2018-01-22T12:09:50.070Z,5.15
2018-01-22T12:10:53.376Z,5.05
2018-01-22T12:11:55.935Z,4.70
2018-01-22T12:12:58.453Z,5.75
2018-01-22T12:14:00.956Z,5.40
2018-01-22T12:15:03.473Z,5.43
2018-01-22T12:16:06.816Z,4.65
2018-01-22T12:17:09.335Z,5.20
2018-01-22T12:18:11.852Z,5.25
2018-01-22T12:19:14.361Z,5.05
2018-01-22T12:20:16.894Z,5.40
2018-01-22T12:21:19.452Z,5.30
2018-01-22T12:22:21.964Z,4.90
2018-01-22T12:23:24.488Z,10.13
2018-01-22T12:24:27.145Z,6.95
2018-01-22T12:25:29.651Z,9.43
2018-01-22T12:26:32.201Z,6.07
2018-01-22T12:27:34.706Z,6.28
2018-01-22T12:28:37.221Z,8.40
2018-01-22T12:29:39.732Z,5.82
2018-01-22T12:30:42.248Z,6.62
2018-01-22T12:31:44.847Z,9.75
2018-01-22T12:32:47.330Z,13.35
2018-01-22T12:33:49.899Z,9.48
2018-01-22T12:34:52.416Z,8.07
2018-01-22T12:35:54.928Z,12.05
2018-01-22T12:36:57.480Z,7.50
2018-01-22T12:38:00.001Z,11.38
2018-01-22T12:39:02.526Z,12.57
2018-01-22T12:40:05.846Z,9.18
2018-01-22T12:41:08.357Z,6.25
2018-01-22T12:42:10.869Z,14.48
2018-01-22T12:43:13.380Z,8.57
2018-01-22T12:44:15.897Z,9.43
2018-01-22T12:45:18.446Z,8.88
2018-01-22T12:46:21.732Z,6.50
2018-01-22T12:47:25.010Z,6.10
2018-01-22T12:48:27.527Z,26.37
2018-01-22T12:49:30.044Z,75.25
2018-01-22T12:50:33.360Z,25.70
2018-01-22T12:51:35.872Z,27.90
2018-01-22T12:52:38.394Z,9.63
2018-01-22T12:53:40.922Z,8.77
2018-01-22T12:54:43.434Z,6.25
2018-01-22T12:55:45.992Z,6.97
2018-01-22T12:56:48.525Z,7.50
2018-01-22T12:57:51.810Z,5.57
2018-01-22T12:58:54.332Z,10.18
2018-01-22T12:59:56.847Z,5.57
2018-01-22T13:01:00.157Z,6.68
2018-01-22T13:02:02.702Z,6.60
2018-01-22T13:03:05.981Z,5.93
2018-01-22T13:04:09.265Z,6.18
2018-01-22T13:05:12.584Z,6.70
2018-01-22T13:06:15.100Z,8.88
2018-01-22T13:07:17.612Z,9.40
2018-01-22T13:08:20.124Z,7.05
2018-01-22T13:09:22.638Z,6.57
2018-01-22T13:10:25.176Z,8.07
2018-01-22T13:11:27.693Z,6.70
2018-01-22T13:12:30.206Z,7.87
2018-01-22T13:13:33.484Z,7.72
2018-01-22T13:14:36.788Z,6.90
2018-01-22T13:15:39.301Z,7.72
2018-01-22T13:16:41.809Z,7.53
2018-01-22T13:17:45.110Z,9.55
2018-01-22T13:18:47.667Z,6.37
2018-01-22T13:19:51.238Z,7.72
2018-01-22T13:20:53.841Z,6.70
2018-01-22T13:21:56.354Z,7.85
2018-01-22T13:22:58.869Z,8.18
2018-01-22T13:24:01.416Z,13.25
2018-01-22T13:25:04.694Z,8.50
2018-01-22T13:26:07.986Z,13.82
2018-01-22T13:27:11.270Z,18.02
2018-01-22T13:28:14.553Z,10.07
2018-01-22T13:29:17.865Z,9.25
2018-01-22T13:30:20.377Z,14.40
2018-01-22T13:31:22.901Z,20.50
2018-01-22T13:32:25.420Z,13.82
2018-01-22T13:33:28.709Z,13.57
2018-01-22T13:34:32.590Z,9.00
2018-01-22T13:35:35.110Z,10.38
2018-01-22T13:36:37.620Z,6.75
2018-01-22T13:37:40.146Z,9.15
2018-01-22T13:38:42.667Z,13.32
2018-01-22T13:39:45.990Z,8.55
2018-01-22T13:42:23.133Z,8.85
2018-01-22T13:43:26.419Z,13.52
2018-01-22T13:44:29.708Z,15.27
2018-01-22T13:45:33.044Z,15.30
2018-01-22T13:46:35.550Z,7.90
2018-01-22T13:47:38.831Z,10.13
2018-01-22T13:48:41.333Z,8.80
2018-01-22T13:49:43.874Z,10.32